Airfield :
LOGIN :

Register | Disclaimer

   EN    FR    IT 

 










Legend :    VFR   Marginal VFR   IFR   Intensive IFR   Very Intensive IFR
Visi :
Ceiling :
>= 8 km
>= 3000ft
5 to 8 km
1000 to 3000 ft
1500m to 5 km
500 to 1000 ft
800 to 1500m
200 to 500 ft
< 800m
< 200 ft
Symbols :   Thunderstorms  Fog  Heavy snow  Heavy precipitations  Wind > 20 kt
SIGMETs :     Misc.  Thunderstorms  Icing  Turbulence  Mountain Waves  Volcanic Ashes






- Airport Elevation : 386 ft
- IATA code : QOE


ETNN - Nörvenich Airforce Base

CURRENT METAR :
  • 212220Z 20002KT 9999 M03/M05 Q1038 BLU+

EXPIRED METARs :
  • 212120Z 19002KT 9999 M03/M04 Q1039 BLU+
  • 212020Z 19002KT 9999 M03/M03 Q1039 BLU+
  • 211920Z 28003KT 9999 M03/M04 Q1039 BLU+

TAF AMD TAF ETNN
Valid from the 21 at 15:00 until the 22 at 00:00 UTC


211707Z 2115/2124 VRB03KT 9999 NSW FEW260
BECMG 2116/2118 VRB02KT 5000 BR SKC
BECMG 2118/2119 VRB02KT 3000 BR SKC
BECMG 2119/2120 VRB01KT 0200 FZFG VV001 CANCEL BY ETGL



MET'MAP, your aeronautical weather chart ! - Copyright ORBIFLY December 2007 - Disclaimer

ORBIFLY MET'MAP TEAM :

Programming & Development : Alexandra Zaïnal
Concept & original design : Baudouin d'Aumeries
Assistance for programming : Marc-Olivier Méhu
Technical & hardware support : Manuel Goepfert

Contact : metmap@orbifly.com




SOURCES & CREDITS :

   NOAA